createdAt,value
2024-02-15T00:00:57.457Z,95512.00
2024-02-15T00:01:57.497Z,95508.00
2024-02-15T00:02:57.633Z,95506.00
2024-02-15T00:03:57.752Z,95507.00
2024-02-15T00:04:57.701Z,95507.00
2024-02-15T00:05:57.803Z,95508.00
2024-02-15T00:06:57.892Z,95507.00
2024-02-15T00:07:57.917Z,95507.00
2024-02-15T00:08:57.972Z,95506.00
2024-02-15T00:09:58.008Z,95509.00
2024-02-15T00:10:58.155Z,95508.00
2024-02-15T00:11:58.198Z,95507.00
2024-02-15T00:12:58.215Z,95508.00
2024-02-15T00:13:58.292Z,95510.00
2024-02-15T00:14:58.396Z,95512.00
2024-02-15T00:15:58.429Z,95511.00
2024-02-15T00:16:58.467Z,95512.00
2024-02-15T00:17:58.662Z,95509.00
2024-02-15T00:18:58.795Z,95509.00
2024-02-15T00:19:58.667Z,95505.00
2024-02-15T00:20:58.806Z,95503.00
2024-02-15T00:21:58.812Z,95503.00
2024-02-15T00:22:58.852Z,95502.00
2024-02-15T00:23:58.925Z,95501.00
2024-02-15T00:24:58.964Z,95500.00
2024-02-15T00:25:59.057Z,95500.00
2024-02-15T00:26:59.116Z,95502.00
2024-02-15T00:27:59.162Z,95501.00
2024-02-15T00:28:59.224Z,95502.00
2024-02-15T00:29:59.364Z,95503.00
2024-02-15T00:30:59.387Z,95504.00
2024-02-15T00:31:59.459Z,95503.00
2024-02-15T00:32:59.595Z,95501.00
2024-02-15T00:33:59.870Z,95504.00
2024-02-15T00:34:59.784Z,95505.00
2024-02-15T00:35:59.885Z,95506.00
2024-02-15T00:36:59.755Z,95508.00
2024-02-15T00:37:59.811Z,95504.00
2024-02-15T00:38:59.933Z,95506.00
2024-02-15T00:39:59.962Z,95509.00
2024-02-15T00:41:00.055Z,95506.00
2024-02-15T00:42:00.123Z,95506.00
2024-02-15T00:43:00.189Z,95508.00
2024-02-15T00:44:00.280Z,95508.00
2024-02-15T00:45:00.448Z,95512.00
2024-02-15T00:46:00.391Z,95516.00
2024-02-15T00:47:00.483Z,95518.00
2024-02-15T00:48:00.669Z,95516.00
2024-02-15T00:49:00.854Z,95514.00
2024-02-15T00:50:00.818Z,95515.00
2024-02-15T00:51:01.085Z,95509.00
2024-02-15T00:52:00.830Z,95509.00
2024-02-15T00:53:00.871Z,95505.00
2024-02-15T00:54:00.957Z,95505.00
2024-02-15T00:55:00.947Z,95504.00
2024-02-15T00:56:00.977Z,95502.00
2024-02-15T00:57:01.078Z,95503.00
2024-02-15T00:58:01.120Z,95502.00
2024-02-15T00:59:01.147Z,95499.00
2024-02-15T01:00:01.381Z,95496.00
2024-02-15T01:01:01.278Z,95497.00
2024-02-15T01:02:01.310Z,95495.00
2024-02-15T01:03:01.368Z,95496.00
2024-02-15T01:04:01.415Z,95497.00
2024-02-15T01:05:01.520Z,95496.00
2024-02-15T01:06:01.512Z,95496.00
2024-02-15T01:07:01.482Z,95493.00
2024-02-15T01:08:01.492Z,95491.00
2024-02-15T01:09:01.580Z,95494.00
2024-02-15T01:10:01.570Z,95494.00
2024-02-15T01:11:01.536Z,95495.00
2024-02-15T01:12:01.624Z,95499.00
2024-02-15T01:13:01.625Z,95500.00
2024-02-15T01:14:01.656Z,95502.00
2024-02-15T01:15:01.734Z,95503.00
2024-02-15T01:16:01.747Z,95501.00
2024-02-15T01:17:01.711Z,95501.00
2024-02-15T01:18:01.845Z,95502.00
2024-02-15T01:19:01.949Z,95500.00
2024-02-15T01:20:01.872Z,95498.00
2024-02-15T01:21:01.956Z,95498.00
2024-02-15T01:22:02.015Z,95495.00
2024-02-15T01:23:02.036Z,95498.00
2024-02-15T01:24:02.138Z,95500.00
2024-02-15T01:25:02.106Z,95498.00
2024-02-15T01:26:02.132Z,95496.00
2024-02-15T01:27:02.334Z,95492.00
2024-02-15T01:28:02.210Z,95491.00
2024-02-15T01:29:02.239Z,95489.00
2024-02-15T01:30:02.491Z,95488.00
2024-02-15T01:31:02.379Z,95486.00
2024-02-15T01:32:02.361Z,95487.00
2024-02-15T01:33:02.482Z,95488.00
2024-02-15T01:34:02.605Z,95489.00
2024-02-15T01:35:02.458Z,95483.00
2024-02-15T01:36:02.571Z,95482.00
2024-02-15T01:37:02.488Z,95483.00
2024-02-15T01:38:02.496Z,95480.00
2024-02-15T01:39:02.608Z,95475.00
2024-02-15T01:40:02.620Z,95475.00
2024-02-15T01:41:02.636Z,95474.00
2024-02-15T01:42:02.662Z,95471.00
2024-02-15T01:43:02.695Z,95468.00
2024-02-15T01:44:02.681Z,95466.00
2024-02-15T01:45:02.802Z,95463.00
2024-02-15T01:46:02.764Z,95463.00
2024-02-15T01:47:02.824Z,95462.00
2024-02-15T01:48:02.891Z,95461.00
2024-02-15T01:49:02.909Z,95463.00
2024-02-15T01:50:02.831Z,95461.00
2024-02-15T01:51:03.358Z,95462.00
2024-02-15T01:52:02.903Z,95459.00
2024-02-15T01:53:02.912Z,95460.00
2024-02-15T01:54:03.030Z,95462.00
2024-02-15T01:55:02.995Z,95461.00
2024-02-15T01:56:03.036Z,95459.00
2024-02-15T01:57:03.092Z,95457.00
2024-02-15T01:58:03.088Z,95458.00
2024-02-15T01:59:03.095Z,95459.00
2024-02-15T02:00:03.205Z,95456.00
2024-02-15T02:01:03.224Z,95453.00
2024-02-15T02:02:03.235Z,95448.00
2024-02-15T02:03:03.323Z,95445.00
2024-02-15T02:04:03.460Z,95445.00
2024-02-15T02:05:03.398Z,95446.00
2024-02-15T02:06:03.402Z,95445.00
2024-02-15T02:07:03.430Z,95445.00
2024-02-15T02:08:03.437Z,95445.00
2024-02-15T02:09:03.459Z,95444.00
2024-02-15T02:10:03.405Z,95445.00
2024-02-15T02:11:03.493Z,95444.00
2024-02-15T02:12:03.505Z,95441.00
2024-02-15T02:13:03.597Z,95441.00
2024-02-15T02:14:03.605Z,95436.00
2024-02-15T02:15:03.605Z,95439.00
2024-02-15T02:16:03.628Z,95441.00
2024-02-15T02:17:03.637Z,95440.00
2024-02-15T02:18:03.763Z,95440.00
2024-02-15T02:19:03.960Z,95441.00
2024-02-15T02:20:03.846Z,95440.00
2024-02-15T02:21:03.754Z,95438.00
2024-02-15T02:22:03.763Z,95438.00
2024-02-15T02:23:03.784Z,95437.00
2024-02-15T02:24:03.907Z,95437.00
2024-02-15T02:25:03.881Z,95437.00
2024-02-15T02:26:03.881Z,95435.00
2024-02-15T02:27:03.927Z,95435.00
2024-02-15T02:28:03.971Z,95436.00
2024-02-15T02:29:04.015Z,95434.00
2024-02-15T02:30:04.073Z,95435.00
2024-02-15T02:31:04.088Z,95433.00
2024-02-15T02:32:04.139Z,95434.00
2024-02-15T02:33:04.202Z,95435.00
2024-02-15T02:34:04.265Z,95434.00
2024-02-15T02:35:04.108Z,95433.00
2024-02-15T02:36:04.288Z,95431.00
2024-02-15T02:37:04.182Z,95428.00
2024-02-15T02:38:04.178Z,95428.00
2024-02-15T02:39:04.325Z,95428.00
2024-02-15T02:40:04.194Z,95425.00
2024-02-15T02:41:04.255Z,95426.00
2024-02-15T02:42:04.323Z,95423.00
2024-02-15T02:43:04.271Z,95424.00
2024-02-15T02:44:04.285Z,95422.00
2024-02-15T02:45:04.356Z,95424.00
2024-02-15T02:46:04.296Z,95426.00
2024-02-15T02:47:04.338Z,95427.00
2024-02-15T02:48:04.460Z,95429.00
2024-02-15T02:49:04.468Z,95430.00
2024-02-15T02:50:04.329Z,95431.00
2024-02-15T02:51:04.377Z,95428.00
2024-02-15T02:52:04.332Z,95431.00
2024-02-15T02:53:04.304Z,95430.00
2024-02-15T02:54:04.363Z,95430.00
2024-02-15T02:55:04.361Z,95431.00
2024-02-15T02:56:04.364Z,95429.00
2024-02-15T02:57:04.453Z,95432.00
2024-02-15T02:58:04.480Z,95434.00
2024-02-15T02:59:04.392Z,95435.00
2024-02-15T03:00:04.993Z,95434.00
2024-02-15T03:01:04.493Z,95435.00
2024-02-15T03:02:04.449Z,95435.00
2024-02-15T03:03:04.499Z,95434.00
2024-02-15T03:04:04.431Z,95433.00
2024-02-15T03:05:04.488Z,95432.00
2024-02-15T03:06:04.519Z,95429.00
2024-02-15T03:07:04.458Z,95430.00
2024-02-15T03:08:04.449Z,95430.00
2024-02-15T03:09:04.562Z,95429.00
2024-02-15T03:10:04.480Z,95429.00
2024-02-15T03:11:04.462Z,95429.00
2024-02-15T03:12:04.483Z,95426.00
2024-02-15T03:13:04.483Z,95427.00
2024-02-15T03:14:04.491Z,95427.00
2024-02-15T03:15:04.515Z,95426.00
2024-02-15T03:16:04.513Z,95425.00
2024-02-15T03:17:04.602Z,95426.00
2024-02-15T03:18:04.890Z,95427.00
2024-02-15T03:19:04.625Z,95428.00
2024-02-15T03:20:04.555Z,95430.00
2024-02-15T03:21:04.571Z,95429.00
2024-02-15T03:22:04.553Z,95429.00
2024-02-15T03:23:04.607Z,95428.00
2024-02-15T03:24:04.569Z,95429.00
2024-02-15T03:25:04.554Z,95429.00
2024-02-15T03:26:04.564Z,95428.00
2024-02-15T03:27:04.600Z,95427.00
2024-02-15T03:28:04.681Z,95430.00
2024-02-15T03:29:04.631Z,95432.00
2024-02-15T03:30:04.685Z,95432.00
2024-02-15T03:31:04.664Z,95431.00
2024-02-15T03:32:04.603Z,95430.00
2024-02-15T03:33:04.753Z,95433.00
2024-02-15T03:34:04.812Z,95432.00
2024-02-15T03:35:04.681Z,95434.00
2024-02-15T03:36:04.698Z,95434.00
2024-02-15T03:37:04.678Z,95434.00
2024-02-15T03:38:04.717Z,95436.00
2024-02-15T03:39:04.787Z,95435.00
2024-02-15T03:40:04.735Z,95436.00
2024-02-15T03:41:04.730Z,95435.00
2024-02-15T03:42:04.804Z,95436.00
2024-02-15T03:43:04.785Z,95435.00
2024-02-15T03:44:04.756Z,95433.00
2024-02-15T03:45:04.802Z,95434.00
2024-02-15T03:46:04.766Z,95435.00
2024-02-15T03:47:04.863Z,95437.00
2024-02-15T03:48:04.832Z,95436.00
2024-02-15T03:49:04.827Z,95438.00
2024-02-15T03:50:04.832Z,95436.00
2024-02-15T03:51:04.842Z,95436.00
2024-02-15T03:52:04.845Z,95432.00
2024-02-15T03:53:05.779Z,95435.00
2024-02-15T03:54:04.925Z,95434.00
2024-02-15T03:55:04.855Z,95436.00
2024-02-15T03:56:04.892Z,95438.00
2024-02-15T03:57:04.928Z,95438.00
2024-02-15T03:58:04.947Z,95437.00
2024-02-15T03:59:04.947Z,95439.00
2024-02-15T04:00:05.004Z,95439.00
2024-02-15T04:01:05.039Z,95444.00
2024-02-15T04:02:05.007Z,95445.00
2024-02-15T04:03:05.065Z,95444.00
2024-02-15T04:04:12.211Z,95444.00
2024-02-15T04:05:12.171Z,95445.00
2024-02-15T04:06:12.245Z,95443.00
2024-02-15T04:07:12.221Z,95445.00
2024-02-15T04:08:12.192Z,95443.00
2024-02-15T04:09:12.281Z,95446.00
2024-02-15T04:10:12.162Z,95445.00
2024-02-15T04:11:12.147Z,95447.00
2024-02-15T04:12:12.281Z,95446.00
2024-02-15T04:13:12.178Z,95444.00
2024-02-15T04:14:12.172Z,95441.00
2024-02-15T04:15:12.222Z,95441.00
2024-02-15T04:16:12.155Z,95440.00
2024-02-15T04:17:12.176Z,95441.00
2024-02-15T04:18:12.233Z,95439.00
2024-02-15T04:19:12.215Z,95438.00
2024-02-15T04:20:12.154Z,95439.00
2024-02-15T04:21:12.193Z,95441.00
2024-02-15T04:22:12.168Z,95443.00
2024-02-15T04:23:12.202Z,95444.00
2024-02-15T04:24:12.312Z,95443.00
2024-02-15T04:25:12.633Z,95442.00
2024-02-15T04:26:12.163Z,95441.00
2024-02-15T04:27:12.367Z,95441.00
2024-02-15T04:28:12.197Z,95440.00
2024-02-15T04:29:12.208Z,95438.00
2024-02-15T04:30:12.376Z,95436.00
2024-02-15T04:31:19.647Z,95436.00
2024-02-15T04:32:19.605Z,95435.00
2024-02-15T04:33:19.699Z,95432.00
2024-02-15T04:34:20.345Z,95433.00
2024-02-15T04:35:19.620Z,95432.00
2024-02-15T04:36:19.632Z,95434.00
2024-02-15T04:37:19.657Z,95437.00
2024-02-15T04:38:19.661Z,95437.00
2024-02-15T04:39:19.628Z,95436.00
2024-02-15T04:40:19.666Z,95437.00
2024-02-15T04:41:19.674Z,95436.00
2024-02-15T04:42:19.679Z,95436.00
2024-02-15T04:43:19.628Z,95432.00
2024-02-15T04:44:19.641Z,95431.00
2024-02-15T04:45:19.747Z,95430.00
2024-02-15T04:46:19.655Z,95432.00
2024-02-15T04:47:19.680Z,95433.00
2024-02-15T04:48:19.702Z,95434.00
2024-02-15T04:49:19.688Z,95435.00
2024-02-15T04:50:19.818Z,95436.00
2024-02-15T04:51:19.634Z,95438.00
2024-02-15T04:52:19.639Z,95437.00
2024-02-15T04:53:19.645Z,95437.00
2024-02-15T04:54:19.684Z,95438.00
2024-02-15T04:55:19.836Z,95438.00
2024-02-15T04:56:19.663Z,95439.00
2024-02-15T04:57:19.678Z,95437.00
2024-02-15T04:58:19.686Z,95437.00
2024-02-15T04:59:19.636Z,95440.00
2024-02-15T05:00:19.672Z,95438.00
2024-02-15T05:01:19.733Z,95432.00
2024-02-15T05:02:19.660Z,95438.00
2024-02-15T05:03:19.688Z,95436.00
2024-02-15T05:04:19.636Z,95438.00
2024-02-15T05:05:19.667Z,95437.00
2024-02-15T05:06:19.697Z,95440.00
2024-02-15T05:07:19.643Z,95437.00
2024-02-15T05:08:19.652Z,95438.00
2024-02-15T05:09:19.671Z,95440.00
2024-02-15T05:10:19.647Z,95442.00
2024-02-15T05:11:19.665Z,95439.00
2024-02-15T05:12:19.684Z,95439.00
2024-02-15T05:13:19.656Z,95435.00
2024-02-15T05:14:19.645Z,95436.00
2024-02-15T05:15:20.107Z,95435.00
2024-02-15T05:16:19.732Z,95435.00
2024-02-15T05:17:19.663Z,95438.00
2024-02-15T05:18:19.785Z,95435.00
2024-02-15T05:19:20.127Z,95436.00
2024-02-15T05:20:19.736Z,95436.00
2024-02-15T05:21:19.853Z,95437.00
2024-02-15T05:22:20.144Z,95434.00
2024-02-15T05:23:19.875Z,95435.00
2024-02-15T05:24:19.968Z,95435.00
2024-02-15T05:25:19.958Z,95438.00
2024-02-15T05:26:20.034Z,95438.00
2024-02-15T05:27:20.176Z,95434.00
2024-02-15T05:28:20.174Z,95433.00
2024-02-15T05:29:20.166Z,95437.00
2024-02-15T05:30:20.268Z,95435.00
2024-02-15T05:31:20.302Z,95440.00
2024-02-15T05:32:20.340Z,95438.00
2024-02-15T05:33:20.530Z,95437.00
2024-02-15T05:34:20.586Z,95437.00
2024-02-15T05:35:20.505Z,95435.00
2024-02-15T05:36:20.549Z,95435.00
2024-02-15T05:37:20.555Z,95433.00
2024-02-15T05:38:20.626Z,95436.00
2024-02-15T05:39:20.707Z,95432.00
2024-02-15T05:40:20.705Z,95431.00
2024-02-15T05:41:20.761Z,95431.00
2024-02-15T05:42:20.789Z,95429.00
2024-02-15T05:43:20.840Z,95430.00
2024-02-15T05:44:20.910Z,95435.00
2024-02-15T05:45:20.906Z,95433.00
2024-02-15T05:46:20.993Z,95434.00
2024-02-15T05:47:21.031Z,95433.00
2024-02-15T05:48:21.178Z,95434.00
2024-02-15T05:49:21.291Z,95433.00
2024-02-15T05:50:21.117Z,95434.00
2024-02-15T05:51:21.221Z,95437.00
2024-02-15T05:52:21.284Z,95439.00
2024-02-15T05:53:21.294Z,95438.00
2024-02-15T05:54:21.365Z,95440.00
2024-02-15T05:55:21.420Z,95440.00
2024-02-15T05:56:21.440Z,95438.00
2024-02-15T05:57:21.476Z,95439.00
2024-02-15T05:58:21.524Z,95442.00
2024-02-15T05:59:21.738Z,95442.00
2024-02-15T06:00:23.218Z,95440.00
2024-02-15T06:01:21.646Z,95440.00
2024-02-15T06:02:21.698Z,95442.00
2024-02-15T06:03:21.779Z,95442.00
2024-02-15T06:04:21.840Z,95446.00
2024-02-15T06:05:21.824Z,95447.00
2024-02-15T06:06:21.975Z,95446.00
2024-02-15T06:07:22.030Z,95446.00
2024-02-15T06:08:21.928Z,95448.00
2024-02-15T06:09:22.077Z,95446.00
2024-02-15T06:10:22.036Z,95448.00
2024-02-15T06:11:22.164Z,95447.00
2024-02-15T06:12:22.157Z,95446.00
2024-02-15T06:13:22.195Z,95448.00
2024-02-15T06:14:22.209Z,95449.00
2024-02-15T06:15:22.403Z,95449.00
2024-02-15T06:16:22.289Z,95449.00
2024-02-15T06:17:22.325Z,95449.00
2024-02-15T06:18:22.545Z,95448.00
2024-02-15T06:19:22.574Z,95448.00
2024-02-15T06:20:22.567Z,95449.00
2024-02-15T06:21:22.557Z,95449.00
2024-02-15T06:22:22.544Z,95451.00
2024-02-15T06:23:22.572Z,95454.00
2024-02-15T06:24:22.711Z,95455.00
2024-02-15T06:25:23.424Z,95453.00
2024-02-15T06:26:22.706Z,95455.00
2024-02-15T06:27:22.755Z,95457.00
2024-02-15T06:28:22.808Z,95458.00
2024-02-15T06:29:22.828Z,95459.00
2024-02-15T06:30:22.897Z,95461.00
2024-02-15T06:31:22.907Z,95459.00
2024-02-15T06:32:22.955Z,95460.00
2024-02-15T06:33:23.094Z,95463.00
2024-02-15T06:34:23.135Z,95465.00
2024-02-15T06:35:23.095Z,95466.00
2024-02-15T06:36:23.139Z,95463.00
2024-02-15T06:37:23.141Z,95465.00
2024-02-15T06:38:23.234Z,95463.00
2024-02-15T06:39:23.351Z,95464.00
2024-02-15T06:40:23.264Z,95465.00
2024-02-15T06:41:25.314Z,95468.00
2024-02-15T06:42:23.391Z,95465.00
2024-02-15T06:43:23.337Z,95464.00
2024-02-15T06:44:23.294Z,95463.00
2024-02-15T06:45:23.330Z,95464.00
2024-02-15T06:46:23.348Z,95461.00
2024-02-15T06:47:23.363Z,95462.00
2024-02-15T06:48:23.452Z,95463.00
2024-02-15T06:49:23.544Z,95462.00
2024-02-15T06:50:23.351Z,95462.00
2024-02-15T06:51:23.345Z,95462.00
2024-02-15T06:52:23.345Z,95467.00
2024-02-15T06:53:23.322Z,95464.00
2024-02-15T06:54:23.416Z,95464.00
2024-02-15T06:55:23.372Z,95464.00
2024-02-15T06:56:23.316Z,95467.00
2024-02-15T06:57:23.514Z,95460.00
2024-02-15T06:58:23.325Z,95463.00
2024-02-15T06:59:23.326Z,95464.00
2024-02-15T07:00:23.393Z,95461.00
2024-02-15T07:01:23.443Z,95461.00
2024-02-15T07:02:23.353Z,95463.00
2024-02-15T07:03:23.348Z,95463.00
2024-02-15T07:04:23.349Z,95462.00
2024-02-15T07:05:23.347Z,95459.00
2024-02-15T07:06:23.466Z,95458.00
2024-02-15T07:07:23.415Z,95459.00
2024-02-15T07:08:23.346Z,95459.00
2024-02-15T07:09:23.459Z,95456.00
2024-02-15T07:10:23.328Z,95460.00
2024-02-15T07:11:23.350Z,95460.00
2024-02-15T07:12:23.386Z,95458.00
2024-02-15T07:13:23.316Z,95459.00
2024-02-15T07:14:23.432Z,95459.00
2024-02-15T07:15:23.363Z,95462.00
2024-02-15T07:16:23.339Z,95457.00
2024-02-15T07:17:23.378Z,95459.00
2024-02-15T07:18:26.593Z,95458.00
2024-02-15T07:19:24.487Z,95458.00
2024-02-15T07:20:23.351Z,95459.00
2024-02-15T07:21:23.388Z,95459.00
2024-02-15T07:22:23.376Z,95460.00
2024-02-15T07:23:23.390Z,95458.00
2024-02-15T07:24:23.419Z,95459.00
2024-02-15T07:25:23.366Z,95458.00
2024-02-15T07:26:23.326Z,95459.00
2024-02-15T07:27:23.417Z,95461.00
2024-02-15T07:28:23.411Z,95462.00
2024-02-15T07:29:23.378Z,95457.00
2024-02-15T07:30:26.009Z,95459.00
2024-02-15T07:31:23.351Z,95459.00
2024-02-15T07:32:23.382Z,95459.00
2024-02-15T07:33:23.500Z,95458.00
2024-02-15T07:34:23.506Z,95458.00
2024-02-15T07:35:23.403Z,95458.00
2024-02-15T07:36:23.536Z,95457.00
2024-02-15T07:37:23.376Z,95457.00
2024-02-15T07:38:23.413Z,95459.00
2024-02-15T07:39:23.452Z,95457.00
2024-02-15T07:40:23.410Z,95455.00
2024-02-15T07:41:23.549Z,95454.00
2024-02-15T07:42:23.428Z,95451.00
2024-02-15T07:43:23.386Z,95451.00
2024-02-15T07:44:23.395Z,95450.00
2024-02-15T07:45:23.503Z,95449.00
2024-02-15T07:46:23.432Z,95448.00
2024-02-15T07:47:23.436Z,95450.00
2024-02-15T07:48:23.529Z,95447.00
2024-02-15T07:49:23.528Z,95447.00
2024-02-15T07:50:23.417Z,95450.00
2024-02-15T07:51:23.479Z,95447.00
2024-02-15T07:52:23.406Z,95448.00
2024-02-15T07:53:23.405Z,95448.00
2024-02-15T07:54:23.482Z,95445.00
2024-02-15T07:55:23.362Z,95443.00
2024-02-15T07:56:23.404Z,95443.00
2024-02-15T07:57:23.438Z,95439.00
2024-02-15T07:58:23.392Z,95436.00
2024-02-15T07:59:23.413Z,95438.00
2024-02-15T08:00:23.415Z,95437.00
2024-02-15T08:01:24.758Z,95433.00
2024-02-15T08:02:23.445Z,95429.00
2024-02-15T08:03:23.475Z,95429.00
2024-02-15T08:04:23.555Z,95430.00
2024-02-15T08:05:23.588Z,95428.00
2024-02-15T08:06:23.627Z,95428.00
2024-02-15T08:07:23.560Z,95427.00
2024-02-15T08:08:23.621Z,95423.00
2024-02-15T08:09:23.631Z,95421.00
2024-02-15T08:10:23.632Z,95419.00
2024-02-15T08:11:23.638Z,95421.00
2024-02-15T08:12:23.693Z,95417.00
2024-02-15T08:13:23.656Z,95416.00
2024-02-15T08:14:23.666Z,95414.00
2024-02-15T08:15:23.745Z,95412.00
2024-02-15T08:16:23.663Z,95412.00
2024-02-15T08:17:23.681Z,95411.00
2024-02-15T08:18:23.765Z,95408.00
2024-02-15T08:19:23.814Z,95409.00
2024-02-15T08:20:23.749Z,95414.00
2024-02-15T08:21:23.799Z,95412.00
2024-02-15T08:22:23.753Z,95411.00
2024-02-15T08:23:23.787Z,95412.00
2024-02-15T08:24:23.811Z,95408.00
2024-02-15T08:25:23.781Z,95409.00
2024-02-15T08:26:23.841Z,95408.00
2024-02-15T08:27:24.029Z,95407.00
2024-02-15T08:28:25.758Z,95406.00
2024-02-15T08:29:24.007Z,95403.00
2024-02-15T08:30:25.605Z,95406.00
2024-02-15T08:31:24.123Z,95403.00
2024-02-15T08:32:24.250Z,95405.00
2024-02-15T08:33:24.426Z,95404.00
2024-02-15T08:34:24.343Z,95403.00
2024-02-15T08:35:24.771Z,95400.00
2024-02-15T08:36:24.541Z,95399.00
2024-02-15T08:37:24.479Z,95398.00
2024-02-15T08:38:24.471Z,95397.00
2024-02-15T08:39:24.564Z,95395.00
2024-02-15T08:40:24.580Z,95395.00
2024-02-15T08:41:24.624Z,95395.00
2024-02-15T08:42:24.612Z,95391.00
2024-02-15T08:43:24.708Z,95387.00
2024-02-15T08:44:24.683Z,95384.00
2024-02-15T08:45:24.975Z,95386.00
2024-02-15T08:46:24.696Z,95381.00
2024-02-15T08:47:24.696Z,95381.00
2024-02-15T08:48:24.787Z,95380.00
2024-02-15T08:49:24.828Z,95381.00
2024-02-15T08:50:25.151Z,95377.00
2024-02-15T08:51:25.469Z,95375.00
2024-02-15T08:52:24.844Z,95374.00
2024-02-15T08:53:24.796Z,95373.00
2024-02-15T08:54:24.870Z,95372.00
2024-02-15T08:55:24.879Z,95373.00
2024-02-15T08:56:24.908Z,95378.00
2024-02-15T08:57:24.966Z,95376.00
2024-02-15T08:58:24.980Z,95378.00
2024-02-15T08:59:25.030Z,95377.00
2024-02-15T09:00:25.226Z,95378.00
2024-02-15T09:01:25.165Z,95374.00
2024-02-15T09:02:25.225Z,95373.00
2024-02-15T09:03:25.379Z,95372.00
2024-02-15T09:04:25.362Z,95370.00
2024-02-15T09:05:25.392Z,95369.00
2024-02-15T09:06:25.557Z,95370.00
2024-02-15T09:07:25.592Z,95367.00
2024-02-15T09:08:25.559Z,95365.00
2024-02-15T09:09:25.677Z,95367.00
2024-02-15T09:10:25.714Z,95360.00
2024-02-15T09:11:25.821Z,95360.00
2024-02-15T09:12:25.930Z,95357.00
2024-02-15T09:13:25.919Z,95357.00
2024-02-15T09:14:25.956Z,95356.00
2024-02-15T09:15:26.211Z,95355.00
2024-02-15T09:16:26.126Z,95354.00
2024-02-15T09:17:26.143Z,95354.00
2024-02-15T09:18:26.440Z,95352.00
2024-02-15T09:19:26.339Z,95351.00
2024-02-15T09:20:26.375Z,95345.00
2024-02-15T09:21:26.546Z,95345.00
2024-02-15T09:22:26.422Z,95340.00
2024-02-15T09:23:26.479Z,95336.00
2024-02-15T09:24:26.581Z,95337.00
2024-02-15T09:25:26.550Z,95338.00
2024-02-15T09:26:26.677Z,95338.00
2024-02-15T09:27:26.616Z,95338.00
2024-02-15T09:28:26.625Z,95337.00
2024-02-15T09:29:26.663Z,95335.00
2024-02-15T09:30:26.713Z,95333.00
2024-02-15T09:31:26.706Z,95334.00
2024-02-15T09:32:26.761Z,95332.00
2024-02-15T09:33:26.961Z,95331.00
2024-02-15T09:34:26.935Z,95333.00
2024-02-15T09:35:26.942Z,95335.00
2024-02-15T09:36:26.890Z,95333.00
2024-02-15T09:37:26.966Z,95329.00
2024-02-15T09:38:26.946Z,95330.00
2024-02-15T09:39:26.938Z,95329.00
2024-02-15T09:40:27.028Z,95329.00
2024-02-15T09:41:26.952Z,95327.00
2024-02-15T09:42:26.984Z,95323.00
2024-02-15T09:43:27.010Z,95323.00
2024-02-15T09:44:27.002Z,95322.00
2024-02-15T09:45:27.062Z,95322.00
2024-02-15T09:46:26.995Z,95322.00
2024-02-15T09:47:27.077Z,95321.00
2024-02-15T09:48:27.198Z,95326.00
2024-02-15T09:49:27.270Z,95323.00
2024-02-15T09:50:27.148Z,95320.00
2024-02-15T09:51:27.250Z,95318.00
2024-02-15T09:52:27.278Z,95315.00
2024-02-15T09:53:27.333Z,95312.00
2024-02-15T09:54:27.440Z,95309.00
2024-02-15T09:55:27.506Z,95307.00
2024-02-15T09:56:27.569Z,95308.00
2024-02-15T09:57:27.579Z,95307.00
2024-02-15T09:58:28.251Z,95307.00
2024-02-15T09:59:27.734Z,95304.00
2024-02-15T10:00:27.867Z,95305.00
2024-02-15T10:01:27.834Z,95306.00
2024-02-15T10:02:27.889Z,95302.00
2024-02-15T10:03:27.929Z,95299.00
2024-02-15T10:04:27.934Z,95296.00
2024-02-15T10:05:28.023Z,95294.00
2024-02-15T10:06:28.031Z,95292.00
2024-02-15T10:07:28.044Z,95290.00
2024-02-15T10:08:28.050Z,95290.00
2024-02-15T10:09:28.121Z,95288.00
2024-02-15T10:10:28.168Z,95291.00
2024-02-15T10:11:28.181Z,95288.00
2024-02-15T10:12:28.228Z,95286.00
2024-02-15T10:13:28.184Z,95285.00
2024-02-15T10:14:28.234Z,95284.00
2024-02-15T10:15:30.662Z,95282.00
2024-02-15T10:16:28.207Z,95281.00
2024-02-15T10:17:28.354Z,95280.00
2024-02-15T10:18:28.273Z,95282.00
2024-02-15T10:19:28.237Z,95279.00
2024-02-15T10:20:28.200Z,95277.00
2024-02-15T10:21:28.317Z,95276.00
2024-02-15T10:22:28.192Z,95274.00
2024-02-15T10:23:28.184Z,95274.00
2024-02-15T10:24:28.192Z,95271.00
2024-02-15T10:25:28.240Z,95269.00
2024-02-15T10:26:28.203Z,95266.00
2024-02-15T10:27:28.232Z,95263.00
2024-02-15T10:28:28.188Z,95265.00
2024-02-15T10:29:28.187Z,95263.00
2024-02-15T10:30:28.262Z,95260.00
2024-02-15T10:31:28.276Z,95260.00
2024-02-15T10:32:28.281Z,95260.00
2024-02-15T10:33:28.303Z,95259.00
2024-02-15T10:34:28.398Z,95259.00
2024-02-15T10:35:28.260Z,95256.00
2024-02-15T10:36:28.204Z,95258.00
2024-02-15T10:37:28.199Z,95254.00
2024-02-15T10:38:28.195Z,95253.00
2024-02-15T10:39:28.250Z,95251.00
2024-02-15T10:40:28.232Z,95250.00
2024-02-15T10:41:28.249Z,95248.00
2024-02-15T10:42:28.355Z,95246.00
2024-02-15T10:43:28.231Z,95246.00
2024-02-15T10:44:28.247Z,95243.00
2024-02-15T10:45:28.291Z,95240.00
2024-02-15T10:46:28.269Z,95239.00
2024-02-15T10:47:28.259Z,95237.00
2024-02-15T10:48:28.288Z,95238.00
2024-02-15T10:49:28.417Z,95237.00
2024-02-15T10:50:28.239Z,95236.00
2024-02-15T10:51:28.257Z,95238.00
2024-02-15T10:52:28.250Z,95235.00
2024-02-15T10:53:28.203Z,95232.00
2024-02-15T10:54:28.321Z,95228.00
2024-02-15T10:55:28.217Z,95225.00
2024-02-15T10:56:28.258Z,95222.00
2024-02-15T10:57:28.260Z,95224.00
2024-02-15T10:58:28.255Z,95218.00
2024-02-15T10:59:28.248Z,95213.00
2024-02-15T11:00:28.343Z,95209.00
2024-02-15T11:01:28.336Z,95208.00
2024-02-15T11:02:28.348Z,95206.00
2024-02-15T11:03:28.345Z,95203.00
2024-02-15T11:04:28.221Z,95204.00
2024-02-15T11:05:28.341Z,95199.00
2024-02-15T11:06:28.535Z,95202.00
2024-02-15T11:07:31.723Z,95196.00
2024-02-15T11:08:28.342Z,95194.00
2024-02-15T11:09:28.355Z,95191.00
2024-02-15T11:10:28.367Z,95191.00
2024-02-15T11:11:28.408Z,95190.00
2024-02-15T11:12:28.335Z,95186.00
2024-02-15T11:13:28.343Z,95184.00
2024-02-15T11:14:28.462Z,95181.00
2024-02-15T11:15:28.364Z,95178.00
2024-02-15T11:16:28.432Z,95176.00
2024-02-15T11:17:28.395Z,95176.00
2024-02-15T11:18:28.496Z,95173.00
2024-02-15T11:19:28.417Z,95170.00
2024-02-15T11:20:28.388Z,95168.00
2024-02-15T11:21:28.355Z,95168.00
2024-02-15T11:22:28.501Z,95164.00
2024-02-15T11:23:35.814Z,95163.00
2024-02-15T11:24:29.448Z,95161.00
2024-02-15T11:25:28.431Z,95159.00
2024-02-15T11:26:28.372Z,95158.00
2024-02-15T11:27:28.395Z,95157.00
2024-02-15T11:28:28.525Z,95155.00
2024-02-15T11:29:28.389Z,95155.00
2024-02-15T11:30:28.524Z,95151.00
2024-02-15T11:31:29.365Z,95149.00
2024-02-15T11:32:28.393Z,95147.00
2024-02-15T11:33:28.514Z,95146.00
2024-02-15T11:34:28.615Z,95143.00
2024-02-15T11:35:28.670Z,95141.00
2024-02-15T11:36:28.638Z,95140.00
2024-02-15T11:37:28.669Z,95138.00
2024-02-15T11:38:28.745Z,95137.00
2024-02-15T11:39:28.784Z,95134.00
2024-02-15T11:40:28.873Z,95138.00
2024-02-15T11:41:28.935Z,95130.00
2024-02-15T11:42:28.991Z,95127.00
2024-02-15T11:43:29.052Z,95126.00
2024-02-15T11:44:29.112Z,95121.00
2024-02-15T11:45:29.266Z,95120.00